Time;durP1;ratioP1;P1;durP2;ratioP2;P2;SDS_P1;SDS_P2;PMS_P1;PMS_P2;Temp;Humidity;BMP_temperature;BMP_pressure;BME280_temperature;BME280_humidity;BME280_pressure;Samples;Min_cycle;Max_cycle;Signal;HPM_P1;HPM_P2
2023/03/14 00:02:21;;;;;;;19.55;4.43;;;10.30;99.90;;;;;;4971316;28;20030;-79
2023/03/14 00:04:47;;;;;;;18.83;5.32;;;10.30;99.90;;;;;;4987672;28;20038;-79
2023/03/14 00:07:14;;;;;;;24.35;4.20;;;10.30;99.90;;;;;;4993952;28;20036;-78
2023/03/14 00:09:39;;;;;;;20.50;4.00;;;10.30;99.90;;;;;;4989267;28;20042;-78
2023/03/14 00:12:07;;;;;;;18.42;4.45;;;10.40;99.90;;;;;;4946067;28;20541;-78
2023/03/14 00:14:33;;;;;;;13.88;4.00;;;10.50;99.90;;;;;;4963401;28;20042;-78
2023/03/14 00:16:59;;;;;;;19.13;5.40;;;10.50;99.90;;;;;;4989705;28;20759;-78
2023/03/14 00:19:24;;;;;;;17.33;4.88;;;10.50;99.90;;;;;;4991405;28;20057;-78
2023/03/14 00:21:50;;;;;;;14.20;4.15;;;10.50;99.90;;;;;;4988582;28;20418;-79
2023/03/14 00:24:16;;;;;;;18.15;4.97;;;10.60;99.90;;;;;;4956947;28;20363;-78
2023/03/14 00:26:41;;;;;;;19.55;4.35;;;10.60;99.90;;;;;;4959653;28;20113;-78
2023/03/14 00:29:07;;;;;;;17.15;4.05;;;10.60;99.90;;;;;;4974912;28;20030;-78
2023/03/14 00:31:33;;;;;;;22.90;5.57;;;10.60;99.90;;;;;;4995791;28;20041;-80
2023/03/14 00:33:59;;;;;;;29.60;5.30;;;10.50;99.90;;;;;;4989089;28;20104;-79
2023/03/14 00:36:24;;;;;;;22.80;6.32;;;10.40;99.90;;;;;;4960201;28;20038;-80
2023/03/14 00:38:51;;;;;;;21.05;5.90;;;10.10;99.90;;;;;;4990725;28;20081;-79
2023/03/14 00:41:20;;;;;;;18.13;5.55;;;9.90;99.90;;;;;;4991437;28;20480;-79
2023/03/14 00:43:45;;;;;;;20.25;5.25;;;9.80;99.90;;;;;;4994223;28;20044;-79
2023/03/14 00:46:12;;;;;;;24.60;5.85;;;9.70;99.90;;;;;;4957589;28;20050;-79
2023/03/14 00:48:38;;;;;;;16.85;4.88;;;9.60;99.90;;;;;;5008832;28;20121;-79
2023/03/14 00:51:05;;;;;;;15.57;5.50;;;9.50;99.90;;;;;;4976607;28;20078;-79
2023/03/14 00:53:34;;;;;;;17.42;5.35;;;9.50;99.90;;;;;;4994597;28;20077;-79
2023/03/14 00:56:04;;;;;;;14.63;5.93;;;9.50;99.90;;;;;;5002782;28;20053;-79
2023/03/14 00:58:29;;;;;;;14.18;5.68;;;9.60;99.90;;;;;;4991278;28;20125;-79
2023/03/14 01:00:55;;;;;;;14.15;5.97;;;9.60;99.90;;;;;;4971755;28;20137;-79
2023/03/14 01:03:21;;;;;;;15.82;6.85;;;9.70;99.90;;;;;;4975665;28;20038;-79
2023/03/14 01:05:46;;;;;;;18.85;7.07;;;9.60;99.90;;;;;;4989313;28;20077;-79
2023/03/14 01:08:12;;;;;;;20.30;7.10;;;9.60;99.90;;;;;;4989166;28;20414;-79
2023/03/14 01:10:40;;;;;;;18.30;7.03;;;9.60;99.90;;;;;;4988326;28;20057;-80
2023/03/14 01:13:06;;;;;;;9.32;4.93;;;9.50;99.90;;;;;;4972287;28;20124;-80
2023/03/14 01:15:36;;;;;;;14.65;6.47;;;9.50;99.90;;;;;;4972124;28;20384;-80
2023/03/14 01:18:03;;;;;;;10.02;4.10;;;9.50;99.90;;;;;;4993557;28;20042;-80
2023/03/14 01:20:29;;;;;;;7.57;3.90;;;9.40;99.90;;;;;;4993310;28;20046;-80
2023/03/14 01:22:55;;;;;;;10.45;3.20;;;9.20;99.90;;;;;;4992455;28;20056;-80
2023/03/14 01:25:21;;;;;;;12.80;3.53;;;9.10;99.90;;;;;;4989079;28;20046;-80
2023/03/14 01:27:46;;;;;;;9.23;3.13;;;8.90;99.90;;;;;;4973889;28;20108;-80
2023/03/14 01:30:13;;;;;;;9.63;3.42;;;8.90;99.90;;;;;;4974783;28;20041;-80
2023/03/14 01:32:39;;;;;;;8.75;3.42;;;8.80;99.90;;;;;;4990539;28;20053;-80
2023/03/14 01:35:05;;;;;;;17.67;4.32;;;8.70;99.90;;;;;;4990701;28;20030;-79
2023/03/14 01:37:31;;;;;;;12.93;4.38;;;8.80;99.90;;;;;;4991401;28;20153;-79
2023/03/14 01:39:56;;;;;;;18.33;5.13;;;8.80;99.90;;;;;;4973707;28;20603;-79
2023/03/14 01:42:22;;;;;;;14.48;5.05;;;8.80;99.90;;;;;;4987734;28;20542;-79
2023/03/14 01:44:57;;;;;;;18.75;5.93;;;8.70;99.90;;;;;;4953426;28;20451;-79
2023/03/14 01:47:23;;;;;;;15.40;5.35;;;8.80;99.90;;;;;;4989178;28;20034;-79
2023/03/14 01:49:59;;;;;;;16.05;5.72;;;8.80;99.90;;;;;;4988394;28;20094;-79
2023/03/14 01:52:41;;;;;;;17.25;6.35;;;8.80;99.90;;;;;;5000109;28;20451;-79
2023/03/14 01:55:13;;;;;;;14.65;5.63;;;8.80;99.90;;;;;;4986784;28;20045;-79
2023/03/14 01:57:44;;;;;;;20.33;6.23;;;8.50;99.90;;;;;;4987367;28;20108;-79
2023/03/14 02:00:14;;;;;;;22.23;6.20;;;8.80;99.90;;;;;;4985775;28;20325;-79
2023/03/14 02:02:43;;;;;;;16.35;6.32;;;8.80;99.90;;;;;;4986770;28;20565;-79
2023/03/14 02:05:11;;;;;;;19.60;6.45;;;8.80;99.90;;;;;;4990520;28;20046;-79
2023/03/14 02:07:49;;;;;;;15.63;5.07;;;8.80;99.90;;;;;;4988963;28;20047;-79
2023/03/14 02:10:18;;;;;;;13.60;5.82;;;8.80;99.90;;;;;;4984467;28;20049;-79
2023/03/14 02:12:46;;;;;;;20.10;6.22;;;8.70;99.90;;;;;;4986835;28;20030;-80
2023/03/14 02:15:12;;;;;;;17.98;5.10;;;8.70;99.90;;;;;;4986560;28;20096;-80
2023/03/14 02:17:40;;;;;;;18.15;5.47;;;8.80;99.90;;;;;;4989002;28;20120;-80
2023/03/14 02:20:36;;;;;;;17.75;5.60;;;8.80;99.90;;;;;;4987316;28;20470;-79
2023/03/14 02:23:02;;;;;;;16.05;5.05;;;8.80;99.90;;;;;;5004207;28;20038;-80
2023/03/14 02:26:05;;;;;;;9.55;4.30;;;8.80;99.90;;;;;;4987524;28;20049;-79
2023/03/14 02:28:31;;;;;;;18.95;4.90;;;8.80;99.90;;;;;;4989395;28;20042;-80
2023/03/14 02:30:57;;;;;;;15.88;4.63;;;8.90;99.90;;;;;;4987007;28;20483;-80
2023/03/14 02:33:23;;;;;;;13.27;4.95;;;8.90;99.90;;;;;;4985414;28;20046;-80
2023/03/14 02:35:59;;;;;;;14.07;3.95;;;8.90;99.90;;;;;;4986147;28;20046;-80
2023/03/14 02:38:43;;;;;;;13.60;4.70;;;8.90;99.90;;;;;;4989297;28;20044;-80
2023/03/14 02:41:09;;;;;;;13.80;4.85;;;8.90;99.90;;;;;;4987876;28;20034;-80
2023/03/14 02:43:35;;;;;;;16.55;5.07;;;8.90;99.90;;;;;;4976867;28;20038;-80
2023/03/14 02:46:04;;;;;;;13.18;4.80;;;8.90;99.90;;;;;;4988006;28;20432;-80
2023/03/14 02:48:34;;;;;;;11.45;4.20;;;8.90;99.90;;;;;;4984421;28;20041;-80
2023/03/14 02:51:01;;;;;;;12.90;4.75;;;8.90;99.90;;;;;;4985869;28;20584;-80
2023/03/14 02:53:29;;;;;;;9.25;4.10;;;8.90;99.90;;;;;;4991104;28;20049;-80
2023/03/14 02:55:55;;;;;;;12.82;3.67;;;9.00;99.90;;;;;;4983115;28;20110;-80
2023/03/14 02:58:21;;;;;;;11.00;3.40;;;9.00;99.90;;;;;;4957278;28;20046;-80
2023/03/14 03:00:46;;;;;;;17.55;3.33;;;9.10;99.90;;;;;;4986580;28;20403;-80
2023/03/14 03:03:13;;;;;;;9.77;3.25;;;9.10;99.90;;;;;;4976170;28;20548;-79
2023/03/14 03:05:39;;;;;;;7.70;2.88;;;9.00;99.90;;;;;;4987301;28;20118;-80
2023/03/14 03:08:05;;;;;;;16.55;3.25;;;9.00;99.90;;;;;;4992373;28;20058;-80
2023/03/14 03:10:32;;;;;;;6.35;3.15;;;8.90;99.90;;;;;;4973982;28;20399;-79
2023/03/14 03:12:57;;;;;;;9.02;2.78;;;8.90;99.90;;;;;;4987654;28;20444;-80
2023/03/14 03:15:23;;;;;;;11.60;3.13;;;9.00;99.90;;;;;;5006463;28;20109;-80
2023/03/14 03:17:49;;;;;;;11.60;3.13;;;8.90;99.90;;;;;;4972019;28;20034;-80
2023/03/14 03:20:15;;;;;;;9.45;2.55;;;8.90;99.90;;;;;;4963340;28;20035;-80
2023/03/14 03:22:41;;;;;;;8.13;3.08;;;8.80;99.90;;;;;;4974816;28;20037;-80
2023/03/14 03:25:08;;;;;;;4.63;2.97;;;8.80;99.90;;;;;;4973374;28;20399;-81
2023/03/14 03:27:35;;;;;;;10.02;3.00;;;8.80;99.90;;;;;;5002924;28;20336;-80
2023/03/14 03:30:03;;;;;;;11.35;2.80;;;8.80;99.90;;;;;;4991230;28;20042;-80
2023/03/14 03:32:28;;;;;;;10.30;3.60;;;8.80;99.90;;;;;;4976193;28;20092;-80
2023/03/14 03:34:54;;;;;;;10.30;3.03;;;8.80;99.90;;;;;;4960769;28;20038;-80
2023/03/14 03:37:20;;;;;;;9.30;3.58;;;8.80;99.90;;;;;;4988929;28;20048;-80
2023/03/14 03:39:45;;;;;;;12.15;3.80;;;8.80;99.90;;;;;;4976970;28;20486;-80
2023/03/14 03:42:11;;;;;;;14.05;4.55;;;8.80;99.90;;;;;;4995363;28;20038;-80
2023/03/14 03:44:37;;;;;;;8.05;3.22;;;8.70;99.90;;;;;;4977402;28;20109;-80
2023/03/14 03:47:03;;;;;;;11.13;4.20;;;8.80;99.90;;;;;;4990389;28;20061;-80
2023/03/14 03:49:30;;;;;;;9.90;4.15;;;8.70;99.90;;;;;;4979039;28;20095;-80
2023/03/14 03:51:56;;;;;;;9.77;3.58;;;8.70;99.90;;;;;;4994505;28;20069;-80
2023/03/14 03:54:22;;;;;;;7.90;3.67;;;8.70;99.90;;;;;;4962508;28;20085;-80
2023/03/14 03:56:47;;;;;;;14.02;4.90;;;8.70;99.90;;;;;;4990393;28;21194;-80
2023/03/14 03:59:13;;;;;;;7.47;3.40;;;8.70;99.90;;;;;;4956914;28;20046;-80
2023/03/14 04:01:39;;;;;;;11.57;4.20;;;8.60;99.90;;;;;;4995377;28;20041;-80
2023/03/14 04:04:04;;;;;;;8.80;3.30;;;8.60;99.90;;;;;;4976372;28;20133;-80
2023/03/14 04:06:30;;;;;;;11.75;3.67;;;8.60;99.90;;;;;;4993466;28;20487;-80
2023/03/14 04:08:56;;;;;;;9.95;4.18;;;8.60;99.90;;;;;;4981063;28;20034;-80
2023/03/14 04:11:22;;;;;;;7.72;2.95;;;8.60;99.90;;;;;;4972194;28;20034;-79
2023/03/14 04:13:48;;;;;;;17.92;3.70;;;8.60;99.90;;;;;;4988628;28;20109;-80
2023/03/14 04:16:19;;;;;;;9.25;3.13;;;8.60;99.90;;;;;;4991807;28;20036;-80
2023/03/14 04:18:45;;;;;;;9.70;3.05;;;8.60;99.90;;;;;;4991822;28;20038;-80
2023/03/14 04:21:11;;;;;;;15.48;3.45;;;8.60;99.90;;;;;;4986230;28;20037;-79
2023/03/14 04:23:36;;;;;;;10.48;3.63;;;8.60;99.90;;;;;;4990093;28;20700;-79
2023/03/14 04:26:02;;;;;;;9.15;2.95;;;8.60;99.90;;;;;;4942609;28;20080;-80
2023/03/14 04:28:28;;;;;;;8.88;3.33;;;8.60;99.90;;;;;;4979798;28;20032;-80
2023/03/14 04:30:54;;;;;;;7.50;3.17;;;8.60;99.90;;;;;;4973553;28;20074;-80
2023/03/14 04:33:20;;;;;;;10.77;3.67;;;8.60;99.90;;;;;;4994778;28;20096;-80
2023/03/14 04:35:46;;;;;;;10.25;3.72;;;8.60;99.90;;;;;;4990830;28;20053;-80
2023/03/14 04:38:13;;;;;;;10.70;4.03;;;8.50;99.90;;;;;;4977798;28;20133;-80
2023/03/14 04:40:43;;;;;;;11.15;3.92;;;8.50;99.90;;;;;;4975908;28;20038;-80
2023/03/14 04:43:11;;;;;;;13.48;4.45;;;8.50;99.90;;;;;;4993302;28;20515;-80
2023/03/14 04:45:37;;;;;;;9.95;4.38;;;8.50;99.90;;;;;;4987983;28;20117;-80
2023/03/14 04:48:03;;;;;;;10.88;4.30;;;8.50;99.90;;;;;;4973444;28;20379;-80
2023/03/14 04:50:28;;;;;;;9.85;3.95;;;8.50;99.90;;;;;;4976094;28;20054;-80
2023/03/14 04:52:54;;;;;;;8.82;3.83;;;8.50;99.90;;;;;;4990009;28;20042;-80
2023/03/14 04:55:20;;;;;;;12.77;5.20;;;8.50;99.90;;;;;;4956799;28;20065;-80
2023/03/14 04:57:45;;;;;;;11.65;4.43;;;8.50;99.90;;;;;;4975331;28;20034;-80
2023/03/14 05:00:12;;;;;;;13.30;4.78;;;8.50;99.90;;;;;;4974902;28;20053;-81
2023/03/14 05:02:37;;;;;;;9.32;4.05;;;8.50;99.90;;;;;;4973516;28;20081;-81
2023/03/14 05:05:04;;;;;;;10.05;4.78;;;8.50;99.90;;;;;;4967854;28;20044;-82
2023/03/14 05:07:29;;;;;;;10.32;5.38;;;8.50;99.90;;;;;;4991355;28;20084;-81
2023/03/14 05:09:55;;;;;;;11.25;4.80;;;8.50;99.90;;;;;;4983329;28;20034;-82
2023/03/14 05:12:21;;;;;;;9.02;4.63;;;8.50;99.90;;;;;;4993041;28;20046;-82
2023/03/14 05:14:46;;;;;;;11.77;5.10;;;8.50;99.90;;;;;;4989750;28;20050;-81
2023/03/14 05:17:14;;;;;;;10.30;4.32;;;8.50;99.90;;;;;;4991320;28;20042;-82
2023/03/14 05:19:43;;;;;;;7.57;4.20;;;8.50;99.90;;;;;;4990037;28;20073;-81
2023/03/14 05:22:08;;;;;;;10.95;4.45;;;8.50;99.90;;;;;;4975960;28;20065;-81
2023/03/14 05:24:34;;;;;;;6.82;3.55;;;8.40;99.90;;;;;;4974359;28;20062;-82
2023/03/14 05:27:00;;;;;;;6.88;3.88;;;8.40;99.90;;;;;;4985303;28;20582;-81
2023/03/14 05:29:25;;;;;;;7.78;3.17;;;8.50;99.90;;;;;;4945005;28;20034;-81
2023/03/14 05:31:51;;;;;;;14.15;3.90;;;8.40;99.90;;;;;;4968587;28;20093;-79
2023/03/14 05:34:17;;;;;;;7.43;3.30;;;8.40;99.90;;;;;;4969072;28;20569;-81
2023/03/14 05:36:42;;;;;;;13.68;4.55;;;8.40;99.90;;;;;;4971330;28;20030;-80
2023/03/14 05:39:08;;;;;;;13.38;4.53;;;8.40;99.90;;;;;;4959267;28;20041;-80
2023/03/14 05:41:34;;;;;;;12.15;3.80;;;8.50;99.90;;;;;;4973038;28;20035;-81
2023/03/14 05:43:59;;;;;;;13.07;4.80;;;8.40;99.90;;;;;;4987707;28;20476;-80
2023/03/14 05:46:25;;;;;;;13.60;4.30;;;8.40;99.90;;;;;;4971350;28;20038;-80
2023/03/14 05:48:51;;;;;;;11.63;3.63;;;8.40;99.90;;;;;;4985833;28;20104;-81
2023/03/14 05:51:16;;;;;;;12.23;4.25;;;8.40;99.90;;;;;;5000165;28;20108;-80
2023/03/14 05:53:42;;;;;;;6.18;3.33;;;8.40;99.90;;;;;;4973042;28;20050;-81
2023/03/14 05:56:08;;;;;;;14.20;4.00;;;8.50;99.90;;;;;;4988966;28;20061;-80
2023/03/14 05:58:33;;;;;;;15.60;3.97;;;8.50;99.90;;;;;;4989832;28;22021;-80
2023/03/14 06:01:05;;;;;;;9.88;3.58;;;8.50;99.90;;;;;;4970271;28;20069;-81
2023/03/14 06:03:31;;;;;;;9.70;3.47;;;8.50;99.90;;;;;;4973415;28;20052;-80
2023/03/14 06:05:57;;;;;;;10.30;3.85;;;8.50;99.90;;;;;;4970622;28;20069;-81
2023/03/14 06:08:23;;;;;;;11.27;4.22;;;8.50;99.90;;;;;;4992286;28;20077;-81
2023/03/14 06:10:49;;;;;;;9.25;3.63;;;8.50;99.90;;;;;;4971838;28;20399;-81
2023/03/14 06:13:15;;;;;;;13.05;3.63;;;8.50;99.90;;;;;;4972317;28;20038;-81
2023/03/14 06:15:41;;;;;;;16.70;4.15;;;8.50;99.90;;;;;;4989441;28;20046;-81
2023/03/14 06:18:07;;;;;;;9.98;3.08;;;8.50;99.90;;;;;;4975224;28;20073;-81
2023/03/14 06:20:35;;;;;;;15.63;3.63;;;8.50;99.90;;;;;;4989640;28;20038;-81
2023/03/14 06:23:01;;;;;;;8.05;3.67;;;8.50;99.90;;;;;;4976540;28;20832;-81
2023/03/14 06:25:27;;;;;;;8.48;3.92;;;8.40;99.90;;;;;;4973727;28;20428;-81
2023/03/14 06:27:53;;;;;;;13.38;3.63;;;8.40;99.90;;;;;;4974531;28;20037;-81
2023/03/14 06:30:19;;;;;;;12.20;4.05;;;8.40;99.90;;;;;;4970032;28;20041;-81
2023/03/14 06:32:44;;;;;;;9.05;3.60;;;8.50;99.90;;;;;;4995192;28;20503;-81
2023/03/14 06:35:10;;;;;;;10.38;3.63;;;8.50;99.90;;;;;;4972506;28;20074;-81
2023/03/14 06:37:36;;;;;;;14.95;3.92;;;8.50;99.90;;;;;;4977131;28;20044;-81
2023/03/14 06:40:01;;;;;;;12.15;3.47;;;8.50;99.90;;;;;;4976148;28;20092;-81
2023/03/14 06:42:27;;;;;;;11.80;4.00;;;8.50;99.90;;;;;;4986308;28;20096;-81
2023/03/14 06:44:53;;;;;;;9.82;4.20;;;8.50;99.90;;;;;;4944592;28;20074;-81
2023/03/14 06:47:18;;;;;;;12.73;3.60;;;8.50;99.90;;;;;;4957906;28;20042;-82
2023/03/14 06:49:44;;;;;;;12.77;4.30;;;8.60;99.90;;;;;;4970509;28;20480;-82
2023/03/14 06:52:10;;;;;;;13.20;5.07;;;8.60;99.90;;;;;;4989854;28;20148;-82
2023/03/14 06:54:35;;;;;;;15.88;4.40;;;8.50;99.90;;;;;;5004044;28;20100;-82
2023/03/14 06:57:01;;;;;;;14.65;4.35;;;8.60;99.90;;;;;;4974036;28;20045;-83
2023/03/14 06:59:27;;;;;;;8.82;3.70;;;8.50;99.90;;;;;;4970924;28;20046;-81
2023/03/14 07:01:52;;;;;;;13.60;4.45;;;8.60;99.90;;;;;;4943860;28;20052;-81
2023/03/14 07:04:18;;;;;;;9.57;3.38;;;8.60;99.90;;;;;;4976216;28;20759;-81
2023/03/14 07:06:44;;;;;;;12.75;3.42;;;8.60;99.90;;;;;;5004999;28;20036;-81
2023/03/14 07:09:13;;;;;;;10.90;3.40;;;8.60;99.90;;;;;;4976132;28;20115;-81
2023/03/14 07:11:39;;;;;;;8.20;3.50;;;8.60;99.90;;;;;;4981095;28;20046;-81
2023/03/14 07:14:05;;;;;;;8.40;3.83;;;8.60;99.90;;;;;;4993434;28;20043;-81
2023/03/14 07:16:32;;;;;;;9.63;4.38;;;8.70;99.90;;;;;;4947311;28;20041;-81
2023/03/14 07:19:00;;;;;;;8.10;4.05;;;8.70;99.90;;;;;;4978751;28;20516;-81
2023/03/14 07:21:25;;;;;;;11.07;4.05;;;8.70;99.90;;;;;;4993694;28;20160;-81
2023/03/14 07:23:53;;;;;;;9.98;4.45;;;8.70;99.90;;;;;;4991971;28;20129;-81
2023/03/14 07:26:19;;;;;;;10.40;4.45;;;8.70;99.90;;;;;;4974705;28;20077;-81
2023/03/14 07:28:45;;;;;;;9.18;3.88;;;8.70;99.90;;;;;;4988894;28;20065;-81
2023/03/14 07:31:10;;;;;;;11.60;4.00;;;8.60;99.90;;;;;;4990121;28;20487;-81
2023/03/14 07:33:36;;;;;;;9.32;4.40;;;8.70;99.90;;;;;;4961090;28;20041;-81
2023/03/14 07:36:03;;;;;;;10.38;4.50;;;8.60;99.90;;;;;;4992612;28;20677;-81
2023/03/14 07:38:29;;;;;;;14.57;4.03;;;8.60;99.90;;;;;;4994192;28;20492;-82
2023/03/14 07:41:05;;;;;;;17.30;5.13;;;8.60;99.90;;;;;;4992862;28;20042;-83
2023/03/14 07:43:31;;;;;;;11.10;4.10;;;8.50;99.90;;;;;;4994265;28;20120;-81
2023/03/14 07:45:57;;;;;;;7.80;3.33;;;8.50;99.90;;;;;;4989261;28;20030;-81
2023/03/14 07:48:24;;;;;;;5.80;1.98;;;8.50;99.90;;;;;;4957524;28;20503;-82
2023/03/14 07:50:51;;;;;;;5.28;2.00;;;8.30;99.90;;;;;;4975037;28;20066;-82
2023/03/14 07:53:18;;;;;;;4.43;1.48;;;8.20;99.90;;;;;;4972602;28;20050;-80
2023/03/14 07:55:44;;;;;;;2.13;1.15;;;7.80;99.90;;;;;;4973468;28;20034;-80
2023/03/14 07:58:10;;;;;;;3.05;1.15;;;7.40;99.90;;;;;;4958156;28;20080;-80
2023/03/14 08:00:35;;;;;;;3.38;0.82;;;6.90;99.90;;;;;;4958739;28;20737;-79
2023/03/14 08:03:01;;;;;;;3.58;1.20;;;6.70;99.90;;;;;;4956599;28;20042;-80
2023/03/14 08:05:27;;;;;;;5.05;1.45;;;6.50;99.90;;;;;;4960388;28;20042;-82
2023/03/14 08:07:53;;;;;;;2.20;1.15;;;6.30;99.90;;;;;;4971508;28;20053;-80
2023/03/14 08:10:24;;;;;;;4.15;1.35;;;6.00;99.90;;;;;;4957057;28;20440;-80
2023/03/14 08:12:51;;;;;;;5.97;1.63;;;5.80;99.90;;;;;;4958160;28;20045;-81
2023/03/14 08:15:17;;;;;;;3.33;1.35;;;5.40;99.90;;;;;;4957939;28;20137;-81
2023/03/14 08:17:42;;;;;;;4.15;1.40;;;5.20;99.90;;;;;;4942793;28;20046;-80
2023/03/14 08:20:11;;;;;;;3.00;1.30;;;5.00;99.90;;;;;;4962982;28;20081;-82
2023/03/14 08:22:37;;;;;;;3.55;1.17;;;4.80;99.90;;;;;;4990939;28;20042;-82
2023/03/14 08:25:03;;;;;;;2.95;1.52;;;4.70;99.90;;;;;;4958239;28;20742;-81
2023/03/14 08:27:29;;;;;;;4.65;1.30;;;4.50;99.90;;;;;;4987562;28;20064;-82
2023/03/14 08:29:55;;;;;;;3.60;1.10;;;4.50;99.90;;;;;;4957883;28;20487;-81
2023/03/14 08:32:22;;;;;;;4.35;1.02;;;4.40;99.90;;;;;;4972458;28;20042;-81
2023/03/14 08:34:48;;;;;;;1.67;0.70;;;4.50;99.90;;;;;;4958403;28;20411;-82
2023/03/14 08:37:13;;;;;;;1.65;0.68;;;4.10;99.90;;;;;;4943979;28;20042;-81
2023/03/14 08:39:39;;;;;;;2.60;0.70;;;4.00;99.90;;;;;;4942061;28;20038;-81
2023/03/14 08:42:05;;;;;;;3.97;0.70;;;4.00;99.90;;;;;;4941494;28;20046;-82
2023/03/14 08:44:30;;;;;;;1.90;0.50;;;4.00;99.90;;;;;;4955863;28;20041;-82
2023/03/14 08:46:56;;;;;;;2.22;0.70;;;3.90;99.90;;;;;;4975624;28;20043;-82
2023/03/14 08:49:22;;;;;;;0.55;0.55;;;3.90;99.90;;;;;;4970932;28;20201;-82
2023/03/14 08:51:47;;;;;;;5.35;1.25;;;3.90;99.90;;;;;;4957492;28;20085;-82
2023/03/14 08:54:13;;;;;;;3.90;0.95;;;4.00;99.90;;;;;;4939600;28;20109;-84
2023/03/14 08:56:39;;;;;;;3.63;1.00;;;4.00;99.90;;;;;;4987104;28;20066;-82
2023/03/14 08:59:05;;;;;;;0.90;0.80;;;4.70;99.90;;;;;;4942785;28;20050;-82
2023/03/14 09:01:31;;;;;;;2.33;1.08;;;4.10;99.90;;;;;;4973684;28;20124;-82
2023/03/14 09:03:57;;;;;;;4.70;1.40;;;4.00;99.90;;;;;;4961141;28;20042;-82
2023/03/14 09:06:23;;;;;;;3.15;1.08;;;4.10;99.90;;;;;;4960412;28;20030;-80
2023/03/14 09:08:48;;;;;;;3.72;0.93;;;4.10;99.90;;;;;;4957396;28;20042;-83
2023/03/14 09:11:14;;;;;;;1.88;0.85;;;4.10;99.90;;;;;;4952546;28;20038;-82
2023/03/14 09:13:41;;;;;;;2.00;1.20;;;4.20;99.90;;;;;;4957188;28;20672;-82
2023/03/14 09:16:07;;;;;;;3.15;1.10;;;4.20;99.90;;;;;;4955179;28;20111;-80
2023/03/14 09:18:33;;;;;;;1.38;0.93;;;4.20;99.90;;;;;;4990755;28;20563;-80
2023/03/14 09:20:59;;;;;;;3.60;1.17;;;4.30;99.90;;;;;;4943866;28;20038;-80
2023/03/14 09:23:24;;;;;;;3.47;1.40;;;4.40;99.90;;;;;;4928883;28;20034;-80
2023/03/14 09:26:00;;;;;;;4.85;1.20;;;4.30;99.90;;;;;;4958372;28;20509;-82
2023/03/14 09:28:27;;;;;;;4.00;1.27;;;4.50;99.90;;;;;;4958914;28;20080;-83
2023/03/14 09:30:54;;;;;;;3.70;1.15;;;4.50;99.90;;;;;;4986742;28;20616;-81
2023/03/14 09:33:20;;;;;;;8.05;2.20;;;4.50;99.90;;;;;;4943105;28;20038;-82
2023/03/14 09:35:46;;;;;;;6.05;1.50;;;4.70;99.90;;;;;;4974715;28;20042;-82
2023/03/14 09:38:12;;;;;;;5.05;1.40;;;4.70;99.90;;;;;;4971571;28;20101;-85
2023/03/14 09:40:38;;;;;;;5.35;1.48;;;4.90;99.90;;;;;;4959361;28;20042;-84
2023/03/14 09:43:05;;;;;;;5.28;2.13;;;5.20;99.90;;;;;;4974108;28;20046;-88
2023/03/14 09:45:40;;;;;;;3.08;1.60;;;5.10;99.90;;;;;;4943649;28;20050;-86
2023/03/14 09:48:11;;;;;;;10.85;2.33;;;5.30;99.90;;;;;;4960184;28;20173;-88
2023/03/14 09:50:43;;;;;;;7.63;1.80;;;5.50;99.90;;;;;;4959819;28;20046;-83
2023/03/14 09:53:14;;;;;;;5.40;2.00;;;5.60;99.90;;;;;;4956055;28;20381;-82
2023/03/14 09:55:42;;;;;;;7.10;1.80;;;6.30;99.90;;;;;;4988593;28;20065;-82
2023/03/14 09:58:14;;;;;;;7.95;2.00;;;5.70;99.90;;;;;;4970161;28;20045;-82
2023/03/14 10:00:40;;;;;;;8.93;2.95;;;5.80;99.90;;;;;;4955314;28;20463;-82
2023/03/14 10:03:11;;;;;;;13.80;2.67;;;5.90;99.90;;;;;;4975606;28;20072;-82
2023/03/14 10:05:37;;;;;;;9.40;2.27;;;5.90;99.90;;;;;;4975900;28;20046;-82
2023/03/14 10:08:04;;;;;;;16.48;2.45;;;5.80;99.90;;;;;;4975632;28;20041;-84
2023/03/14 10:10:30;;;;;;;11.15;2.58;;;5.80;99.90;;;;;;4941647;28;20526;-84
2023/03/14 10:12:58;;;;;;;17.55;3.35;;;5.90;99.90;;;;;;4970614;28;20050;-82
2023/03/14 10:15:33;;;;;;;11.75;2.38;;;6.10;99.90;;;;;;4956960;28;20100;-83
2023/03/14 10:18:01;;;;;;;14.35;2.92;;;6.40;99.90;;;;;;4942681;28;20109;-82
2023/03/14 10:20:33;;;;;;;10.40;2.92;;;6.40;99.90;;;;;;4989780;28;20412;-82
2023/03/14 10:23:27;;;;;;;13.18;3.55;;;6.30;99.90;;;;;;4973035;28;20039;-82
2023/03/14 10:26:18;;;;;;;15.45;3.55;;;6.20;99.90;;;;;;4972574;28;20100;-82
2023/03/14 10:28:52;;;;;;;18.98;3.08;;;6.00;99.90;;;;;;4975416;28;20084;-84
2023/03/14 10:31:19;;;;;;;14.57;3.28;;;5.90;99.90;;;;;;4973540;28;20042;-81
2023/03/14 10:33:59;;;;;;;11.77;2.65;;;5.90;99.90;;;;;;4956122;28;20030;-81
2023/03/14 10:36:29;;;;;;;11.35;3.58;;;5.80;99.90;;;;;;4973176;28;20046;-80
2023/03/14 10:39:17;;;;;;;25.55;4.25;;;5.80;99.90;;;;;;4973270;28;20169;-78
2023/03/14 10:41:52;;;;;;;18.70;4.70;;;5.80;99.90;;;;;;4959615;28;20046;-79
2023/03/14 10:44:22;;;;;;;14.70;3.05;;;5.80;99.90;;;;;;4959335;28;20042;-81
2023/03/14 10:47:03;;;;;;;15.00;3.45;;;5.90;99.90;;;;;;4960030;28;20591;-81
2023/03/14 10:49:35;;;;;;;7.13;3.03;;;6.00;99.90;;;;;;4988687;28;20054;-79
2023/03/14 10:52:13;;;;;;;17.10;3.47;;;6.00;99.90;;;;;;4963206;28;20722;-81
2023/03/14 10:54:39;;;;;;;18.70;4.25;;;6.20;99.90;;;;;;4979185;28;20045;-79
2023/03/14 10:57:08;;;;;;;18.73;3.72;;;6.30;99.90;;;;;;4974793;28;20034;-79
2023/03/14 10:59:37;;;;;;;21.38;3.78;;;6.30;99.90;;;;;;4975912;28;20034;-80
2023/03/14 11:02:24;;;;;;;15.57;4.28;;;6.10;99.90;;;;;;4958310;28;20034;-80
2023/03/14 11:05:11;;;;;;;12.60;3.00;;;6.00;99.90;;;;;;4976499;28;20050;-80
2023/03/14 11:07:42;;;;;;;19.85;4.15;;;5.80;99.90;;;;;;4975946;28;20451;-83
2023/03/14 11:10:26;;;;;;;15.63;4.07;;;5.80;99.90;;;;;;4975992;28;20154;-78
2023/03/14 11:13:02;;;;;;;16.73;3.60;;;5.90;99.90;;;;;;4973762;28;20046;-80
2023/03/14 11:15:33;;;;;;;11.63;3.20;;;5.90;99.90;;;;;;4975395;28;20077;-79
2023/03/14 11:18:08;;;;;;;23.20;3.40;;;5.90;99.90;;;;;;4989747;28;20102;-79
2023/03/14 11:20:52;;;;;;;16.55;3.13;;;6.10;99.90;;;;;;4974767;28;20049;-78
2023/03/14 11:23:45;;;;;;;9.95;3.17;;;6.30;99.90;;;;;;4960927;28;20046;-79
2023/03/14 11:26:24;;;;;;;14.82;3.00;;;6.30;99.90;;;;;;4962417;28;20050;-79
2023/03/14 11:28:57;;;;;;;20.15;3.65;;;6.30;99.90;;;;;;4976722;28;20603;-79
2023/03/14 11:31:28;;;;;;;24.70;3.00;;;6.30;99.90;;;;;;4978416;28;20431;-79
2023/03/14 11:34:06;;;;;;;10.40;3.08;;;6.30;99.90;;;;;;4978329;28;20042;-79
2023/03/14 11:36:39;;;;;;;9.45;3.22;;;6.30;99.90;;;;;;4976351;28;20073;-79
2023/03/14 11:39:14;;;;;;;6.50;2.17;;;6.20;99.90;;;;;;4962619;28;20109;-79
2023/03/14 11:41:41;;;;;;;9.43;2.88;;;6.30;99.90;;;;;;4977397;28;20415;-79
2023/03/14 11:44:19;;;;;;;7.75;2.22;;;6.30;99.90;;;;;;4976179;28;21020;-79
2023/03/14 11:46:59;;;;;;;7.43;2.00;;;6.50;99.90;;;;;;4961673;28;20053;-79
2023/03/14 11:49:42;;;;;;;14.52;2.25;;;6.40;99.90;;;;;;4976690;28;20062;-79
2023/03/14 11:52:30;;;;;;;15.50;2.90;;;6.30;99.90;;;;;;4976190;28;20051;-79
2023/03/14 11:55:17;;;;;;;11.52;2.28;;;6.30;99.90;;;;;;4970868;28;20516;-79
2023/03/14 11:57:45;;;;;;;8.05;2.22;;;6.20;99.90;;;;;;4960720;28;20531;-79
2023/03/14 12:00:21;;;;;;;8.32;1.90;;;6.40;99.90;;;;;;4960319;28;20317;-79
2023/03/14 12:03:27;;;;;;;10.43;2.75;;;6.70;99.90;;;;;;4978647;28;20516;-79
2023/03/14 12:06:01;;;;;;;12.45;2.10;;;7.10;99.90;;;;;;4960255;28;20038;-79
2023/03/14 12:08:30;;;;;;;6.90;2.08;;;7.40;99.90;;;;;;4972367;28;20034;-78
2023/03/14 12:11:01;;;;;;;7.32;1.60;;;7.60;99.90;;;;;;4974492;28;20034;-79
2023/03/14 12:13:36;;;;;;;10.30;2.30;;;7.50;99.90;;;;;;4959270;28;20034;-79
2023/03/14 12:16:06;;;;;;;6.95;2.22;;;7.30;99.90;;;;;;4984577;28;20069;-79
2023/03/14 12:18:38;;;;;;;6.60;2.03;;;6.80;99.90;;;;;;4990857;28;20096;-79
2023/03/14 12:21:09;;;;;;;5.97;1.93;;;6.70;99.90;;;;;;4990520;28;20042;-79
2023/03/14 12:23:57;;;;;;;5.50;1.70;;;6.90;99.90;;;;;;4991244;28;20027;-79
2023/03/14 12:26:25;;;;;;;7.18;1.92;;;6.80;99.90;;;;;;4991669;28;20049;-79
2023/03/14 12:28:57;;;;;;;6.75;1.95;;;6.80;99.70;;;;;;4999447;28;20137;-79
2023/03/14 12:31:31;;;;;;;8.88;2.30;;;7.00;99.20;;;;;;4975999;28;20049;-79
2023/03/14 12:34:10;;;;;;;3.72;1.58;;;7.40;99.90;;;;;;4980684;28;20654;-78
2023/03/14 12:36:49;;;;;;;8.40;2.42;;;7.70;99.00;;;;;;4988605;28;20050;-78
2023/03/14 12:39:35;;;;;;;2.28;1.33;;;7.40;96.80;;;;;;4976822;28;20491;-78
2023/03/14 12:42:20;;;;;;;7.32;1.88;;;7.20;97.20;;;;;;4977158;28;20099;-78
2023/03/14 12:44:51;;;;;;;7.57;1.77;;;7.30;98.70;;;;;;4977420;28;20044;-79
2023/03/14 12:47:20;;;;;;;2.37;1.30;;;7.40;98.30;;;;;;4975960;28;20038;-78
2023/03/14 12:49:50;;;;;;;7.25;1.50;;;7.40;99.00;;;;;;4992417;28;20097;-79
2023/03/14 12:52:27;;;;;;;5.30;1.48;;;7.70;98.10;;;;;;4991353;28;20046;-79
2023/03/14 12:55:05;;;;;;;4.80;1.35;;;8.00;97.30;;;;;;4989884;28;20113;-79
2023/03/14 12:57:30;;;;;;;3.85;1.40;;;8.00;94.90;;;;;;4971866;28;20046;-79
2023/03/14 12:59:59;;;;;;;4.15;1.40;;;8.20;97.20;;;;;;4986351;28;20045;-78